<?xml version="1.0" encoding="UTF-8" standalone="no" ?>
<gpx xmlns="http://www.topografix.com/GPX/1/1" xmlns:xsi="http://www.w3.org/2001/XMLSchema-instance" xsi:schemaLocation="http://www.topografix.com/GPX/1/1 http://www.topografix.com/GPX/1/1/gpx.xsd" version="1.1" creator="VisuGPX - https://www.visugpx.com">
  <metadata>
    <name>Col du Vay antihoraire par Praillet depuis Pont du Veyton</name>
    <desc><![CDATA[Col du Vay antihoraire par Praillet depuis Pont du Veyton]]></desc>
  </metadata>
  <trk>
    <name><![CDATA[Move]]></name>
    <trkseg>
      <trkpt lat="45.38354" lon="6.09828">
        <ele>625.0592</ele>
        <time>2018-06-23T10:36:04.562Z</time>
      </trkpt>
      <trkpt lat="45.38367" lon="6.09897">
        <ele>633</ele>
        <time>2018-06-23T10:37:05.562Z</time>
      </trkpt>
      <trkpt lat="45.38353" lon="6.09973">
        <ele>640.3184</ele>
        <time>2018-06-23T10:38:05.562Z</time>
      </trkpt>
      <trkpt lat="45.38344" lon="6.10067">
        <ele>649.2592</ele>
        <time>2018-06-23T10:39:06.562Z</time>
      </trkpt>
      <trkpt lat="45.38315" lon="6.10147">
        <ele>660.35855794216</ele>
        <time>2018-06-23T10:40:07.562Z</time>
      </trkpt>
      <trkpt lat="45.38269" lon="6.10221">
        <ele>673.07652244409</ele>
        <time>2018-06-23T10:41:07.562Z</time>
      </trkpt>
      <trkpt lat="45.38248" lon="6.10304">
        <ele>686.45811588496</ele>
        <time>2018-06-23T10:42:08.562Z</time>
      </trkpt>
      <trkpt lat="45.38219" lon="6.10394">
        <ele>695.4592</ele>
        <time>2018-06-23T10:43:08.562Z</time>
      </trkpt>
      <trkpt lat="45.38202" lon="6.10491">
        <ele>701.2592</ele>
        <time>2018-06-23T10:44:06.562Z</time>
      </trkpt>
      <trkpt lat="45.38134" lon="6.10558">
        <ele>705.3592</ele>
        <time>2018-06-23T10:45:07.562Z</time>
      </trkpt>
      <trkpt lat="45.38103" lon="6.10643">
        <ele>715.9184</ele>
        <time>2018-06-23T10:46:08.562Z</time>
      </trkpt>
      <trkpt lat="45.38093" lon="6.10749">
        <ele>723.45865813845</ele>
        <time>2018-06-23T10:47:08.562Z</time>
      </trkpt>
      <trkpt lat="45.38093" lon="6.1085">
        <ele>733.67592246865</ele>
        <time>2018-06-23T10:48:09.562Z</time>
      </trkpt>
      <trkpt lat="45.37822" lon="6.11848">
        <ele>845.1184</ele>
        <time>2018-06-23T10:58:19.562Z</time>
      </trkpt>
      <trkpt lat="45.37775" lon="6.11924">
        <ele>857.6592</ele>
        <time>2018-06-23T10:59:20.562Z</time>
      </trkpt>
      <trkpt lat="45.37755" lon="6.12026">
        <ele>867</ele>
        <time>2018-06-23T11:00:20.562Z</time>
      </trkpt>
      <trkpt lat="45.37743" lon="6.1214">
        <ele>876.7592</ele>
        <time>2018-06-23T11:01:21.562Z</time>
      </trkpt>
      <trkpt lat="45.37733" lon="6.12246">
        <ele>886.85905892362</ele>
        <time>2018-06-23T11:02:22.562Z</time>
      </trkpt>
      <trkpt lat="45.37725" lon="6.12361">
        <ele>893.9164816785</ele>
        <time>2018-06-23T11:03:23.562Z</time>
      </trkpt>
      <trkpt lat="45.37739" lon="6.12474">
        <ele>900.9572848177</ele>
        <time>2018-06-23T11:04:23.562Z</time>
      </trkpt>
      <trkpt lat="45.37724" lon="6.12556">
        <ele>913.11816359718</ele>
        <time>2018-06-23T11:05:24.562Z</time>
      </trkpt>
      <trkpt lat="45.37702" lon="6.12655">
        <ele>924.1184</ele>
        <time>2018-06-23T11:06:24.562Z</time>
      </trkpt>
      <trkpt lat="45.37666" lon="6.12736">
        <ele>935.31502897958</ele>
        <time>2018-06-23T11:07:25.562Z</time>
      </trkpt>
      <trkpt lat="45.37608" lon="6.1278">
        <ele>948.2592</ele>
        <time>2018-06-23T11:08:26.562Z</time>
      </trkpt>
      <trkpt lat="45.37542" lon="6.12835">
        <ele>958.77545073617</ele>
        <time>2018-06-23T11:09:26.562Z</time>
      </trkpt>
      <trkpt lat="45.37493" lon="6.12858">
        <ele>971.35855794216</ele>
        <time>2018-06-23T11:10:27.562Z</time>
      </trkpt>
      <trkpt lat="45.3753" lon="6.12904">
        <ele>977.26353653047</ele>
        <time>2018-06-23T11:11:10.294Z</time>
      </trkpt>
      <trkpt lat="45.37485" lon="6.12921">
        <ele>987.53240064</ele>
        <time>2018-06-23T11:12:09.294Z</time>
      </trkpt>
      <trkpt lat="45.37544" lon="6.12927">
        <ele>995.2646016</ele>
        <time>2018-06-23T11:13:10.293Z</time>
      </trkpt>
      <trkpt lat="45.37603" lon="6.12927">
        <ele>1005.9184</ele>
        <time>2018-06-23T11:14:08.562Z</time>
      </trkpt>
      <trkpt lat="45.37663" lon="6.1294">
        <ele>1016.3177170621</ele>
        <time>2018-06-23T11:15:10.562Z</time>
      </trkpt>
      <trkpt lat="45.37596" lon="6.12966">
        <ele>1027.73139968</ele>
        <time>2018-06-23T11:16:11.294Z</time>
      </trkpt>
      <trkpt lat="45.3754" lon="6.13029">
        <ele>1039.8969024</ele>
        <time>2018-06-23T11:17:10.293Z</time>
      </trkpt>
      <trkpt lat="45.37476" lon="6.13057">
        <ele>1054.19750144</ele>
        <time>2018-06-23T11:18:11.295Z</time>
      </trkpt>
      <trkpt lat="45.37408" lon="6.13072">
        <ele>1066.8646016</ele>
        <time>2018-06-23T11:19:13.293Z</time>
      </trkpt>
      <trkpt lat="45.37363" lon="6.13151">
        <ele>1074</ele>
        <time>2018-06-23T11:20:11.294Z</time>
      </trkpt>
      <trkpt lat="45.37319" lon="6.13166">
        <ele>1074</ele>
        <time>2018-06-23T11:21:10.293Z</time>
      </trkpt>
      <trkpt lat="45.37328" lon="6.1318">
        <ele>1075</ele>
        <time>2018-06-23T11:22:11.292Z</time>
      </trkpt>
      <trkpt lat="45.37324" lon="6.13173">
        <ele>1075.6317682652</ele>
        <time>2018-06-23T11:23:10.294Z</time>
      </trkpt>
      <trkpt lat="45.37289" lon="6.13193">
        <ele>1077</ele>
        <time>2018-06-23T11:24:12.295Z</time>
      </trkpt>
      <trkpt lat="45.37229" lon="6.13289">
        <ele>1075.5587583347</ele>
        <time>2018-06-23T11:25:09.562Z</time>
      </trkpt>
      <trkpt lat="45.3718" lon="6.13365">
        <ele>1082.73250048</ele>
        <time>2018-06-23T11:26:11.295Z</time>
      </trkpt>
      <trkpt lat="45.37107" lon="6.13459">
        <ele>1088.5592</ele>
        <time>2018-06-23T11:27:09.562Z</time>
      </trkpt>
      <trkpt lat="45.3704" lon="6.13493">
        <ele>1087</ele>
        <time>2018-06-23T11:28:11.292Z</time>
      </trkpt>
      <trkpt lat="45.36995" lon="6.13511">
        <ele>1088</ele>
        <time>2018-06-23T11:29:08.562Z</time>
      </trkpt>
      <trkpt lat="45.36959" lon="6.13616">
        <ele>1090</ele>
        <time>2018-06-23T11:30:09.562Z</time>
      </trkpt>
      <trkpt lat="45.36962" lon="6.13728">
        <ele>1095.5323008</ele>
        <time>2018-06-23T11:31:09.293Z</time>
      </trkpt>
      <trkpt lat="45.36989" lon="6.13821">
        <ele>1099.83250048</ele>
        <time>2018-06-23T11:32:12.295Z</time>
      </trkpt>
      <trkpt lat="45.36955" lon="6.13913">
        <ele>1106.83250048</ele>
        <time>2018-06-23T11:33:12.295Z</time>
      </trkpt>
      <trkpt lat="45.36913" lon="6.13953">
        <ele>1112</ele>
        <time>2018-06-23T11:34:11.295Z</time>
      </trkpt>
      <trkpt lat="45.36844" lon="6.13967">
        <ele>1117.8614764957</ele>
        <time>2018-06-23T11:35:13.296Z</time>
      </trkpt>
      <trkpt lat="45.3678" lon="6.14022">
        <ele>1126.86540032</ele>
        <time>2018-06-23T11:36:18.297Z</time>
      </trkpt>
      <trkpt lat="45.36702" lon="6.14052">
        <ele>1136.6321322591</ele>
        <time>2018-06-23T11:37:20.295Z</time>
      </trkpt>
      <trkpt lat="45.36644" lon="6.14112">
        <ele>1144.46480128</ele>
        <time>2018-06-23T11:38:11.294Z</time>
      </trkpt>
      <trkpt lat="45.36591" lon="6.14199">
        <ele>1152</ele>
        <time>2018-06-23T11:39:14.293Z</time>
      </trkpt>
      <trkpt lat="45.36518" lon="6.14222">
        <ele>1160.86500096</ele>
        <time>2018-06-23T11:40:13.295Z</time>
      </trkpt>
      <trkpt lat="45.36462" lon="6.14282">
        <ele>1168.5184</ele>
        <time>2018-06-23T11:41:06.562Z</time>
      </trkpt>
      <trkpt lat="45.36376" lon="6.14296">
        <ele>1180.46500096</ele>
        <time>2018-06-23T11:42:11.295Z</time>
      </trkpt>
      <trkpt lat="45.36436" lon="6.1432">
        <ele>1185.7324323355</ele>
        <time>2018-06-23T11:43:11.297Z</time>
      </trkpt>
      <trkpt lat="45.3653" lon="6.14321">
        <ele>1195.26540032</ele>
        <time>2018-06-23T11:44:25.297Z</time>
      </trkpt>
      <trkpt lat="45.36588" lon="6.14277">
        <ele>1202.46540032</ele>
        <time>2018-06-23T11:45:11.297Z</time>
      </trkpt>
      <trkpt lat="45.36555" lon="6.14367">
        <ele>1210.73250048</ele>
        <time>2018-06-23T11:46:11.295Z</time>
      </trkpt>
      <trkpt lat="45.36517" lon="6.1447">
        <ele>1217.93240064</ele>
        <time>2018-06-23T11:47:13.294Z</time>
      </trkpt>
      <trkpt lat="45.36469" lon="6.14548">
        <ele>1227.86500096</ele>
        <time>2018-06-23T11:48:13.295Z</time>
      </trkpt>
      <trkpt lat="45.36432" lon="6.14574">
        <ele>1233</ele>
        <time>2018-06-23T11:49:10.295Z</time>
      </trkpt>
      <trkpt lat="45.36372" lon="6.14592">
        <ele>1238.2328</ele>
        <time>2018-06-23T11:50:16.298Z</time>
      </trkpt>
      <trkpt lat="45.36297" lon="6.14548">
        <ele>1243</ele>
        <time>2018-06-23T11:51:11.562Z</time>
      </trkpt>
      <trkpt lat="45.36218" lon="6.14518">
        <ele>1245</ele>
        <time>2018-06-23T11:52:09.562Z</time>
      </trkpt>
      <trkpt lat="45.36135" lon="6.14472">
        <ele>1246</ele>
        <time>2018-06-23T11:53:09.562Z</time>
      </trkpt>
      <trkpt lat="45.36046" lon="6.14503">
        <ele>1252</ele>
        <time>2018-06-23T11:54:09.562Z</time>
      </trkpt>
      <trkpt lat="45.35987" lon="6.14501">
        <ele>1261.26700032</ele>
        <time>2018-06-23T11:55:10.305Z</time>
      </trkpt>
      <trkpt lat="45.35921" lon="6.14537">
        <ele>1267.5184</ele>
        <time>2018-06-23T11:56:06.562Z</time>
      </trkpt>
      <trkpt lat="45.3585" lon="6.14608">
        <ele>1273.1184</ele>
        <time>2018-06-23T11:57:09.562Z</time>
      </trkpt>
      <trkpt lat="45.35781" lon="6.14689">
        <ele>1276</ele>
        <time>2018-06-23T11:58:12.300Z</time>
      </trkpt>
      <trkpt lat="45.35717" lon="6.14719">
        <ele>1279.46540032</ele>
        <time>2018-06-23T11:59:11.297Z</time>
      </trkpt>
      <trkpt lat="45.35704" lon="6.14648">
        <ele>1283.1184</ele>
        <time>2018-06-23T12:00:09.562Z</time>
      </trkpt>
      <trkpt lat="45.35719" lon="6.14539">
        <ele>1291.4656</ele>
        <time>2018-06-23T12:01:11.298Z</time>
      </trkpt>
      <trkpt lat="45.35745" lon="6.14467">
        <ele>1299.5184</ele>
        <time>2018-06-23T12:02:06.562Z</time>
      </trkpt>
      <trkpt lat="45.35792" lon="6.14366">
        <ele>1310.0656</ele>
        <time>2018-06-23T12:03:14.298Z</time>
      </trkpt>
      <trkpt lat="45.3583" lon="6.14292">
        <ele>1321.1175166695</ele>
        <time>2018-06-23T12:04:09.562Z</time>
      </trkpt>
      <trkpt lat="45.359" lon="6.14241">
        <ele>1329</ele>
        <time>2018-06-23T12:05:09.562Z</time>
      </trkpt>
      <trkpt lat="45.35964" lon="6.14208">
        <ele>1338</ele>
        <time>2018-06-23T12:06:06.562Z</time>
      </trkpt>
      <trkpt lat="45.35972" lon="6.1408">
        <ele>1348.0656</ele>
        <time>2018-06-23T12:07:14.298Z</time>
      </trkpt>
      <trkpt lat="45.35968" lon="6.14007">
        <ele>1356.0656</ele>
        <time>2018-06-23T12:08:14.298Z</time>
      </trkpt>
      <trkpt lat="45.36008" lon="6.13935">
        <ele>1364.9319669783</ele>
        <time>2018-06-23T12:09:13.299Z</time>
      </trkpt>
      <trkpt lat="45.36041" lon="6.13852">
        <ele>1374.7328</ele>
        <time>2018-06-23T12:10:11.298Z</time>
      </trkpt>
      <trkpt lat="45.3607" lon="6.13755">
        <ele>1384.1175166695</ele>
        <time>2018-06-23T12:11:09.562Z</time>
      </trkpt>
      <trkpt lat="45.36135" lon="6.13741">
        <ele>1393.317081654</ele>
        <time>2018-06-23T12:12:10.562Z</time>
      </trkpt>
      <trkpt lat="45.36172" lon="6.13707">
        <ele>1400</ele>
        <time>2018-06-23T12:13:12.298Z</time>
      </trkpt>
      <trkpt lat="45.36176" lon="6.13706">
        <ele>1398</ele>
        <time>2018-06-23T12:14:17.298Z</time>
      </trkpt>
      <trkpt lat="45.36176" lon="6.13707">
        <ele>1399</ele>
        <time>2018-06-23T12:15:08.562Z</time>
      </trkpt>
      <trkpt lat="45.36174" lon="6.13705">
        <ele>1400</ele>
        <time>2018-06-23T12:16:34.299Z</time>
      </trkpt>
      <trkpt lat="45.36174" lon="6.137">
        <ele>1400</ele>
        <time>2018-06-23T12:17:11.299Z</time>
      </trkpt>
      <trkpt lat="45.36172" lon="6.13705">
        <ele>1400</ele>
        <time>2018-06-23T12:18:12.299Z</time>
      </trkpt>
      <trkpt lat="45.36177" lon="6.13711">
        <ele>1399</ele>
        <time>2018-06-23T12:19:10.298Z</time>
      </trkpt>
      <trkpt lat="45.3616" lon="6.13704">
        <ele>1400</ele>
        <time>2018-06-23T12:20:06.562Z</time>
      </trkpt>
      <trkpt lat="45.36197" lon="6.1369">
        <ele>1400.83300096</ele>
        <time>2018-06-23T12:21:12.300Z</time>
      </trkpt>
      <trkpt lat="45.36264" lon="6.13624">
        <ele>1409.5592</ele>
        <time>2018-06-23T12:22:09.562Z</time>
      </trkpt>
      <trkpt lat="45.36299" lon="6.1353">
        <ele>1418.2592</ele>
        <time>2018-06-23T12:23:06.562Z</time>
      </trkpt>
      <trkpt lat="45.3626" lon="6.13521">
        <ele>1426.5169154917</ele>
        <time>2018-06-23T12:24:06.562Z</time>
      </trkpt>
      <trkpt lat="45.36209" lon="6.13565">
        <ele>1433.4323316267</ele>
        <time>2018-06-23T12:25:08.299Z</time>
      </trkpt>
      <trkpt lat="45.36125" lon="6.13591">
        <ele>1441.8657343945</ele>
        <time>2018-06-23T12:26:13.308Z</time>
      </trkpt>
      <trkpt lat="45.36176" lon="6.13551">
        <ele>1449.2592</ele>
        <time>2018-06-23T12:27:06.562Z</time>
      </trkpt>
      <trkpt lat="45.3618" lon="6.13431">
        <ele>1458.46599936</ele>
        <time>2018-06-23T12:28:11.300Z</time>
      </trkpt>
      <trkpt lat="45.36253" lon="6.13401">
        <ele>1466.26600192</ele>
        <time>2018-06-23T12:29:10.300Z</time>
      </trkpt>
      <trkpt lat="45.36311" lon="6.13349">
        <ele>1474.63300096</ele>
        <time>2018-06-23T12:30:10.300Z</time>
      </trkpt>
      <trkpt lat="45.3633" lon="6.13254">
        <ele>1482.5331008</ele>
        <time>2018-06-23T12:31:09.301Z</time>
      </trkpt>
      <trkpt lat="45.36338" lon="6.13228">
        <ele>1488.5587583347</ele>
        <time>2018-06-23T12:32:09.562Z</time>
      </trkpt>
      <trkpt lat="45.3627" lon="6.1327">
        <ele>1495.6324677251</ele>
        <time>2018-06-23T12:33:10.301Z</time>
      </trkpt>
      <trkpt lat="45.36256" lon="6.13224">
        <ele>1501</ele>
        <time>2018-06-23T12:34:12.300Z</time>
      </trkpt>
      <trkpt lat="45.36304" lon="6.13184">
        <ele>1513.26579968</ele>
        <time>2018-06-23T12:35:10.299Z</time>
      </trkpt>
      <trkpt lat="45.36352" lon="6.13149">
        <ele>1523.6331008</ele>
        <time>2018-06-23T12:36:10.301Z</time>
      </trkpt>
      <trkpt lat="45.364" lon="6.13136">
        <ele>1534.26600192</ele>
        <time>2018-06-23T12:37:10.300Z</time>
      </trkpt>
      <trkpt lat="45.36454" lon="6.13138">
        <ele>1546.1184</ele>
        <time>2018-06-23T12:38:09.562Z</time>
      </trkpt>
      <trkpt lat="45.36469" lon="6.13106">
        <ele>1553.065063526</ele>
        <time>2018-06-23T12:39:09.300Z</time>
      </trkpt>
      <trkpt lat="45.36491" lon="6.13029">
        <ele>1563.4587408188</ele>
        <time>2018-06-23T12:40:08.562Z</time>
      </trkpt>
      <trkpt lat="45.36488" lon="6.1298">
        <ele>1573</ele>
        <time>2018-06-23T12:41:09.301Z</time>
      </trkpt>
      <trkpt lat="45.36493" lon="6.12991">
        <ele>1573</ele>
        <time>2018-06-23T12:42:10.301Z</time>
      </trkpt>
      <trkpt lat="45.36479" lon="6.12971">
        <ele>1575</ele>
        <time>2018-06-23T12:43:13.301Z</time>
      </trkpt>
      <trkpt lat="45.36447" lon="6.12988">
        <ele>1565.0639282173</ele>
        <time>2018-06-23T13:21:18.309Z</time>
      </trkpt>
      <trkpt lat="45.36406" lon="6.12998">
        <ele>1575.5592</ele>
        <time>2018-06-23T13:22:13.562Z</time>
      </trkpt>
      <trkpt lat="45.36371" lon="6.12991">
        <ele>1584.06599936</ele>
        <time>2018-06-23T13:23:13.300Z</time>
      </trkpt>
      <trkpt lat="45.36296" lon="6.12989">
        <ele>1594.46640128</ele>
        <time>2018-06-23T13:24:15.302Z</time>
      </trkpt>
      <trkpt lat="45.36311" lon="6.12962">
        <ele>1603.5331008</ele>
        <time>2018-06-23T13:25:13.301Z</time>
      </trkpt>
      <trkpt lat="45.36371" lon="6.12901">
        <ele>1615.7336341785</ele>
        <time>2018-06-23T13:26:15.309Z</time>
      </trkpt>
      <trkpt lat="45.36399" lon="6.12849">
        <ele>1624.5326329843</ele>
        <time>2018-06-23T13:27:13.301Z</time>
      </trkpt>
      <trkpt lat="45.36409" lon="6.12791">
        <ele>1635</ele>
        <time>2018-06-23T13:28:10.562Z</time>
      </trkpt>
      <trkpt lat="45.36402" lon="6.12749">
        <ele>1640.8662016</ele>
        <time>2018-06-23T13:29:12.301Z</time>
      </trkpt>
      <trkpt lat="45.36399" lon="6.12684">
        <ele>1651.2592</ele>
        <time>2018-06-23T13:30:10.562Z</time>
      </trkpt>
      <trkpt lat="45.36382" lon="6.12595">
        <ele>1660.2678016</ele>
        <time>2018-06-23T13:31:14.309Z</time>
      </trkpt>
      <trkpt lat="45.364" lon="6.12511">
        <ele>1669.6331008</ele>
        <time>2018-06-23T13:32:14.301Z</time>
      </trkpt>
      <trkpt lat="45.36393" lon="6.12491">
        <ele>1674</ele>
        <time>2018-06-23T13:33:12.562Z</time>
      </trkpt>
      <trkpt lat="45.36322" lon="6.12549">
        <ele>1673</ele>
        <time>2018-06-23T13:34:13.562Z</time>
      </trkpt>
      <trkpt lat="45.36307" lon="6.12641">
        <ele>1683.7325672095</ele>
        <time>2018-06-23T13:35:15.303Z</time>
      </trkpt>
      <trkpt lat="45.36248" lon="6.12708">
        <ele>1690.73320064</ele>
        <time>2018-06-23T13:36:15.302Z</time>
      </trkpt>
      <trkpt lat="45.36168" lon="6.12754">
        <ele>1697</ele>
        <time>2018-06-23T13:37:17.301Z</time>
      </trkpt>
      <trkpt lat="45.36092" lon="6.12757">
        <ele>1695</ele>
        <time>2018-06-23T13:38:17.303Z</time>
      </trkpt>
      <trkpt lat="45.36025" lon="6.12783">
        <ele>1706.46680064</ele>
        <time>2018-06-23T13:39:15.304Z</time>
      </trkpt>
      <trkpt lat="45.35977" lon="6.12823">
        <ele>1713</ele>
        <time>2018-06-23T13:40:22.304Z</time>
      </trkpt>
      <trkpt lat="45.35967" lon="6.12851">
        <ele>1711.46659968</ele>
        <time>2018-06-23T13:41:23.304Z</time>
      </trkpt>
      <trkpt lat="45.35915" lon="6.12917">
        <ele>1711</ele>
        <time>2018-06-23T13:42:15.303Z</time>
      </trkpt>
      <trkpt lat="45.35871" lon="6.13007">
        <ele>1707.53340032</ele>
        <time>2018-06-23T13:43:13.304Z</time>
      </trkpt>
      <trkpt lat="45.35821" lon="6.13078">
        <ele>1715</ele>
        <time>2018-06-23T13:44:12.304Z</time>
      </trkpt>
      <trkpt lat="45.35799" lon="6.13079">
        <ele>1712</ele>
        <time>2018-06-23T13:45:14.302Z</time>
      </trkpt>
      <trkpt lat="45.35726" lon="6.13108">
        <ele>1699.3670669393</ele>
        <time>2018-06-23T13:46:14.303Z</time>
      </trkpt>
      <trkpt lat="45.35695" lon="6.1314">
        <ele>1699.36669952</ele>
        <time>2018-06-23T13:47:14.303Z</time>
      </trkpt>
      <trkpt lat="45.35654" lon="6.13178">
        <ele>1700.8331334533</ele>
        <time>2018-06-23T13:48:16.303Z</time>
      </trkpt>
      <trkpt lat="45.35584" lon="6.13174">
        <ele>1708.5586408229</ele>
        <time>2018-06-23T13:49:13.562Z</time>
      </trkpt>
      <trkpt lat="45.35518" lon="6.13124">
        <ele>1712.2592</ele>
        <time>2018-06-23T13:50:10.562Z</time>
      </trkpt>
      <trkpt lat="45.35431" lon="6.13085">
        <ele>1716.86669952</ele>
        <time>2018-06-23T13:51:19.303Z</time>
      </trkpt>
      <trkpt lat="45.35366" lon="6.13068">
        <ele>1717</ele>
        <time>2018-06-23T13:52:17.304Z</time>
      </trkpt>
      <trkpt lat="45.35281" lon="6.13038">
        <ele>1709</ele>
        <time>2018-06-23T13:53:17.302Z</time>
      </trkpt>
      <trkpt lat="45.35215" lon="6.13092">
        <ele>1701.6408</ele>
        <time>2018-06-23T13:54:11.562Z</time>
      </trkpt>
      <trkpt lat="45.35126" lon="6.13146">
        <ele>1688.0826837231</ele>
        <time>2018-06-23T13:55:12.562Z</time>
      </trkpt>
      <trkpt lat="45.35028" lon="6.13183">
        <ele>1678.0825183624</ele>
        <time>2018-06-23T13:56:12.562Z</time>
      </trkpt>
      <trkpt lat="45.34976" lon="6.13206">
        <ele>1654.5408</ele>
        <time>2018-06-23T13:57:12.562Z</time>
      </trkpt>
      <trkpt lat="45.34972" lon="6.13206">
        <ele>1652</ele>
        <time>2018-06-23T13:58:18.304Z</time>
      </trkpt>
      <trkpt lat="45.34942" lon="6.13198">
        <ele>1644.1632</ele>
        <time>2018-06-23T13:59:12.562Z</time>
      </trkpt>
      <trkpt lat="45.34886" lon="6.13205">
        <ele>1637</ele>
        <time>2018-06-23T14:00:17.304Z</time>
      </trkpt>
      <trkpt lat="45.34838" lon="6.13236">
        <ele>1634.2592</ele>
        <time>2018-06-23T14:01:10.562Z</time>
      </trkpt>
      <trkpt lat="45.34739" lon="6.13295">
        <ele>1629.6414420578</ele>
        <time>2018-06-23T14:02:11.562Z</time>
      </trkpt>
      <trkpt lat="45.34658" lon="6.13297">
        <ele>1614.6411591853</ele>
        <time>2018-06-23T14:03:11.562Z</time>
      </trkpt>
      <trkpt lat="45.34555" lon="6.13271">
        <ele>1593.7334661497</ele>
        <time>2018-06-23T14:04:19.304Z</time>
      </trkpt>
      <trkpt lat="45.34492" lon="6.13234">
        <ele>1577.4408</ele>
        <time>2018-06-23T14:05:13.562Z</time>
      </trkpt>
      <trkpt lat="45.34439" lon="6.132">
        <ele>1567.332</ele>
        <time>2018-06-23T14:06:17.306Z</time>
      </trkpt>
      <trkpt lat="45.3441" lon="6.13194">
        <ele>1565</ele>
        <time>2018-06-23T14:07:10.562Z</time>
      </trkpt>
      <trkpt lat="45.34404" lon="6.13194">
        <ele>1564</ele>
        <time>2018-06-23T14:08:25.305Z</time>
      </trkpt>
      <trkpt lat="45.3437" lon="6.13196">
        <ele>1556</ele>
        <time>2018-06-23T14:09:10.562Z</time>
      </trkpt>
      <trkpt lat="45.34368" lon="6.13191">
        <ele>1556.4653338994</ele>
        <time>2018-06-23T14:10:15.304Z</time>
      </trkpt>
      <trkpt lat="45.34364" lon="6.13177">
        <ele>1557</ele>
        <time>2018-06-23T14:11:10.562Z</time>
      </trkpt>
      <trkpt lat="45.34371" lon="6.13187">
        <ele>1556</ele>
        <time>2018-06-23T14:12:10.562Z</time>
      </trkpt>
      <trkpt lat="45.34373" lon="6.13177">
        <ele>1557</ele>
        <time>2018-06-23T14:13:10.562Z</time>
      </trkpt>
      <trkpt lat="45.34363" lon="6.13233">
        <ele>1566.7408</ele>
        <time>2018-06-23T14:14:10.562Z</time>
      </trkpt>
      <trkpt lat="45.34351" lon="6.1326">
        <ele>1576.5184</ele>
        <time>2018-06-23T14:15:10.562Z</time>
      </trkpt>
      <trkpt lat="45.34344" lon="6.13291">
        <ele>1582.5169154917</ele>
        <time>2018-06-23T14:16:10.562Z</time>
      </trkpt>
      <trkpt lat="45.34332" lon="6.13317">
        <ele>1592</ele>
        <time>2018-06-23T14:17:18.306Z</time>
      </trkpt>
      <trkpt lat="45.34316" lon="6.13347">
        <ele>1601.66700032</ele>
        <time>2018-06-23T14:18:16.305Z</time>
      </trkpt>
      <trkpt lat="45.34299" lon="6.13381">
        <ele>1612.2592</ele>
        <time>2018-06-23T14:19:10.562Z</time>
      </trkpt>
      <trkpt lat="45.34311" lon="6.13393">
        <ele>1619</ele>
        <time>2018-06-23T14:20:16.303Z</time>
      </trkpt>
      <trkpt lat="45.34295" lon="6.13428">
        <ele>1622.8672</ele>
        <time>2018-06-23T14:21:17.306Z</time>
      </trkpt>
      <trkpt lat="45.34238" lon="6.13448">
        <ele>1630.9184</ele>
        <time>2018-06-23T14:22:12.562Z</time>
      </trkpt>
      <trkpt lat="45.34183" lon="6.13464">
        <ele>1643.6666666667</ele>
        <time>2018-06-23T14:23:16.305Z</time>
      </trkpt>
      <trkpt lat="45.34137" lon="6.13506">
        <ele>1656.3588408147</ele>
        <time>2018-06-23T14:24:11.562Z</time>
      </trkpt>
      <trkpt lat="45.34101" lon="6.13537">
        <ele>1663.8319355964</ele>
        <time>2018-06-23T14:25:16.306Z</time>
      </trkpt>
      <trkpt lat="45.34035" lon="6.13498">
        <ele>1670</ele>
        <time>2018-06-23T14:26:11.562Z</time>
      </trkpt>
      <trkpt lat="45.34039" lon="6.13572">
        <ele>1671.9336</ele>
        <time>2018-06-23T14:27:17.306Z</time>
      </trkpt>
      <trkpt lat="45.3399" lon="6.13582">
        <ele>1677.2592</ele>
        <time>2018-06-23T14:28:10.562Z</time>
      </trkpt>
      <trkpt lat="45.33949" lon="6.1359">
        <ele>1681</ele>
        <time>2018-06-23T14:29:12.562Z</time>
      </trkpt>
      <trkpt lat="45.3391" lon="6.13596">
        <ele>1684.4586581384</ele>
        <time>2018-06-23T14:30:12.562Z</time>
      </trkpt>
      <trkpt lat="45.33893" lon="6.1361">
        <ele>1689</ele>
        <time>2018-06-23T14:31:16.306Z</time>
      </trkpt>
      <trkpt lat="45.3386" lon="6.13653">
        <ele>1694</ele>
        <time>2018-06-23T14:32:12.562Z</time>
      </trkpt>
      <trkpt lat="45.33799" lon="6.13621">
        <ele>1693</ele>
        <time>2018-06-23T14:33:10.562Z</time>
      </trkpt>
      <trkpt lat="45.33755" lon="6.13601">
        <ele>1696</ele>
        <time>2018-06-23T14:34:12.562Z</time>
      </trkpt>
      <trkpt lat="45.33711" lon="6.13571">
        <ele>1699</ele>
        <time>2018-06-23T14:35:10.562Z</time>
      </trkpt>
      <trkpt lat="45.33682" lon="6.13568">
        <ele>1699</ele>
        <time>2018-06-23T14:36:10.562Z</time>
      </trkpt>
      <trkpt lat="45.33635" lon="6.13546">
        <ele>1692.0666676917</ele>
        <time>2018-06-23T14:37:15.306Z</time>
      </trkpt>
      <trkpt lat="45.33582" lon="6.13539">
        <ele>1689.0357632424</ele>
        <time>2018-06-23T14:38:10.562Z</time>
      </trkpt>
      <trkpt lat="45.3355" lon="6.13529">
        <ele>1701.0368</ele>
        <time>2018-06-23T14:39:10.562Z</time>
      </trkpt>
      <trkpt lat="45.33502" lon="6.13506">
        <ele>1712</ele>
        <time>2018-06-23T14:40:10.562Z</time>
      </trkpt>
      <trkpt lat="45.33469" lon="6.1352">
        <ele>1715.7408</ele>
        <time>2018-06-23T14:41:10.562Z</time>
      </trkpt>
      <trkpt lat="45.33449" lon="6.13525">
        <ele>1715.2592</ele>
        <time>2018-06-23T14:42:10.562Z</time>
      </trkpt>
      <trkpt lat="45.33426" lon="6.13509">
        <ele>1720.5184</ele>
        <time>2018-06-23T14:43:10.562Z</time>
      </trkpt>
      <trkpt lat="45.33392" lon="6.135">
        <ele>1728.7753732376</ele>
        <time>2018-06-23T14:44:10.562Z</time>
      </trkpt>
      <trkpt lat="45.33361" lon="6.13497">
        <ele>1742</ele>
        <time>2018-06-23T14:45:14.310Z</time>
      </trkpt>
      <trkpt lat="45.33327" lon="6.13508">
        <ele>1748</ele>
        <time>2018-06-23T14:46:15.309Z</time>
      </trkpt>
      <trkpt lat="45.33296" lon="6.13504">
        <ele>1757.5184</ele>
        <time>2018-06-23T14:47:10.562Z</time>
      </trkpt>
      <trkpt lat="45.33275" lon="6.13495">
        <ele>1764</ele>
        <time>2018-06-23T14:48:12.562Z</time>
      </trkpt>
      <trkpt lat="45.33263" lon="6.13468">
        <ele>1766.5184</ele>
        <time>2018-06-23T14:49:10.562Z</time>
      </trkpt>
      <trkpt lat="45.33238" lon="6.13505">
        <ele>1779.5184</ele>
        <time>2018-06-23T14:50:10.562Z</time>
      </trkpt>
      <trkpt lat="45.33211" lon="6.13548">
        <ele>1793.2692692077</ele>
        <time>2018-06-23T14:51:14.320Z</time>
      </trkpt>
      <trkpt lat="45.3321" lon="6.13581">
        <ele>1806</ele>
        <time>2018-06-23T14:52:10.562Z</time>
      </trkpt>
      <trkpt lat="45.33173" lon="6.13553">
        <ele>1805</ele>
        <time>2018-06-23T14:53:10.562Z</time>
      </trkpt>
      <trkpt lat="45.33196" lon="6.136">
        <ele>1808.5184</ele>
        <time>2018-06-23T14:54:10.562Z</time>
      </trkpt>
      <trkpt lat="45.33197" lon="6.13606">
        <ele>1808</ele>
        <time>2018-06-23T14:55:12.562Z</time>
      </trkpt>
      <trkpt lat="45.33185" lon="6.13608">
        <ele>1809.9184</ele>
        <time>2018-06-23T14:56:12.562Z</time>
      </trkpt>
      <trkpt lat="45.33165" lon="6.13626">
        <ele>1818.9184</ele>
        <time>2018-06-23T14:57:12.562Z</time>
      </trkpt>
      <trkpt lat="45.33134" lon="6.13666">
        <ele>1831</ele>
        <time>2018-06-23T14:58:12.562Z</time>
      </trkpt>
      <trkpt lat="45.3309" lon="6.13672">
        <ele>1836</ele>
        <time>2018-06-23T14:59:19.310Z</time>
      </trkpt>
      <trkpt lat="45.3307" lon="6.13648">
        <ele>1846.5184</ele>
        <time>2018-06-23T15:00:10.562Z</time>
      </trkpt>
      <trkpt lat="45.33055" lon="6.13658">
        <ele>1852</ele>
        <time>2018-06-23T15:01:10.562Z</time>
      </trkpt>
      <trkpt lat="45.33063" lon="6.1364">
        <ele>1853</ele>
        <time>2018-06-23T15:02:10.562Z</time>
      </trkpt>
      <trkpt lat="45.33065" lon="6.13677">
        <ele>1854.26800128</ele>
        <time>2018-06-23T15:03:14.310Z</time>
      </trkpt>
      <trkpt lat="45.33049" lon="6.13678">
        <ele>1865.5184</ele>
        <time>2018-06-23T15:04:10.562Z</time>
      </trkpt>
      <trkpt lat="45.33017" lon="6.13718">
        <ele>1878.169171574</ele>
        <time>2018-06-23T15:05:16.310Z</time>
      </trkpt>
      <trkpt lat="45.32983" lon="6.13751">
        <ele>1890.0658656088</ele>
        <time>2018-06-23T15:06:18.309Z</time>
      </trkpt>
      <trkpt lat="45.32981" lon="6.13795">
        <ele>1900.5552</ele>
        <time>2018-06-23T15:07:10.562Z</time>
      </trkpt>
      <trkpt lat="45.32952" lon="6.1378">
        <ele>1913.296</ele>
        <time>2018-06-23T15:08:10.562Z</time>
      </trkpt>
      <trkpt lat="45.32954" lon="6.13791">
        <ele>1919</ele>
        <time>2018-06-23T15:09:12.562Z</time>
      </trkpt>
      <trkpt lat="45.32941" lon="6.1381">
        <ele>1929.66800128</ele>
        <time>2018-06-23T15:10:16.310Z</time>
      </trkpt>
      <trkpt lat="45.32945" lon="6.13835">
        <ele>1931</ele>
        <time>2018-06-23T15:11:10.562Z</time>
      </trkpt>
      <trkpt lat="45.32943" lon="6.13785">
        <ele>1930.2584577459</ele>
        <time>2018-06-23T15:12:10.562Z</time>
      </trkpt>
      <trkpt lat="45.32934" lon="6.13797">
        <ele>1931.4339008</ele>
        <time>2018-06-23T15:13:32.309Z</time>
      </trkpt>
      <trkpt lat="45.32934" lon="6.13819">
        <ele>1935</ele>
        <time>2018-06-23T15:14:10.562Z</time>
      </trkpt>
      <trkpt lat="45.32923" lon="6.13854">
        <ele>1945.5184</ele>
        <time>2018-06-23T15:15:10.562Z</time>
      </trkpt>
      <trkpt lat="45.32899" lon="6.1388">
        <ele>1957.53400064</ele>
        <time>2018-06-23T15:16:13.310Z</time>
      </trkpt>
      <trkpt lat="45.32891" lon="6.13894">
        <ele>1962.2592</ele>
        <time>2018-06-23T15:17:10.562Z</time>
      </trkpt>
      <trkpt lat="45.32872" lon="6.13915">
        <ele>1965.6186340352</ele>
        <time>2018-06-23T15:18:14.311Z</time>
      </trkpt>
      <trkpt lat="45.32844" lon="6.13965">
        <ele>1972.5169154917</ele>
        <time>2018-06-23T15:19:10.562Z</time>
      </trkpt>
      <trkpt lat="45.32807" lon="6.13962">
        <ele>1985</ele>
        <time>2018-06-23T15:20:10.562Z</time>
      </trkpt>
      <trkpt lat="45.32768" lon="6.13955">
        <ele>1996</ele>
        <time>2018-06-23T15:21:10.562Z</time>
      </trkpt>
      <trkpt lat="45.3273" lon="6.13994">
        <ele>2004.5184</ele>
        <time>2018-06-23T15:22:10.562Z</time>
      </trkpt>
      <trkpt lat="45.32708" lon="6.13967">
        <ele>2010.7408</ele>
        <time>2018-06-23T15:23:10.562Z</time>
      </trkpt>
      <trkpt lat="45.32715" lon="6.13947">
        <ele>2010</ele>
        <time>2018-06-23T15:24:10.562Z</time>
      </trkpt>
      <trkpt lat="45.3268" lon="6.13934">
        <ele>2009.4816</ele>
        <time>2018-06-23T15:25:10.562Z</time>
      </trkpt>
      <trkpt lat="45.32711" lon="6.13968">
        <ele>2009</ele>
        <time>2018-06-23T15:26:14.310Z</time>
      </trkpt>
      <trkpt lat="45.32705" lon="6.13954">
        <ele>2010</ele>
        <time>2018-06-23T15:27:17.311Z</time>
      </trkpt>
      <trkpt lat="45.32715" lon="6.13965">
        <ele>2009.7408</ele>
        <time>2018-06-23T15:28:10.562Z</time>
      </trkpt>
      <trkpt lat="45.32713" lon="6.13962">
        <ele>2009</ele>
        <time>2018-06-23T15:29:10.562Z</time>
      </trkpt>
      <trkpt lat="45.32702" lon="6.13944">
        <ele>2008</ele>
        <time>2018-06-23T15:30:10.562Z</time>
      </trkpt>
      <trkpt lat="45.32716" lon="6.13972">
        <ele>2007.7408</ele>
        <time>2018-06-23T15:31:10.562Z</time>
      </trkpt>
      <trkpt lat="45.32705" lon="6.13961">
        <ele>2003</ele>
        <time>2018-06-23T15:32:22.322Z</time>
      </trkpt>
      <trkpt lat="45.32704" lon="6.13945">
        <ele>2000</ele>
        <time>2018-06-23T15:33:20.313Z</time>
      </trkpt>
      <trkpt lat="45.32696" lon="6.13944">
        <ele>2000.7410591894</ele>
        <time>2018-06-23T15:34:10.562Z</time>
      </trkpt>
      <trkpt lat="45.32705" lon="6.13947">
        <ele>1999</ele>
        <time>2018-06-23T15:35:10.562Z</time>
      </trkpt>
      <trkpt lat="45.32702" lon="6.13937">
        <ele>1999</ele>
        <time>2018-06-23T15:36:10.562Z</time>
      </trkpt>
      <trkpt lat="45.32701" lon="6.13949">
        <ele>2001.93410048</ele>
        <time>2018-06-23T15:37:27.311Z</time>
      </trkpt>
      <trkpt lat="45.32705" lon="6.13953">
        <ele>2001</ele>
        <time>2018-06-23T15:38:20.313Z</time>
      </trkpt>
      <trkpt lat="45.32699" lon="6.13959">
        <ele>2001</ele>
        <time>2018-06-23T15:39:10.562Z</time>
      </trkpt>
      <trkpt lat="45.32691" lon="6.1394">
        <ele>2001</ele>
        <time>2018-06-23T15:40:10.562Z</time>
      </trkpt>
      <trkpt lat="45.32705" lon="6.13958">
        <ele>2001</ele>
        <time>2018-06-23T15:41:19.313Z</time>
      </trkpt>
      <trkpt lat="45.32706" lon="6.13961">
        <ele>2001</ele>
        <time>2018-06-23T15:42:28.315Z</time>
      </trkpt>
      <trkpt lat="45.32707" lon="6.13961">
        <ele>2001</ele>
        <time>2018-06-23T15:43:10.562Z</time>
      </trkpt>
      <trkpt lat="45.32706" lon="6.1396">
        <ele>2001</ele>
        <time>2018-06-23T15:44:29.313Z</time>
      </trkpt>
      <trkpt lat="45.32695" lon="6.13962">
        <ele>1999.0816</ele>
        <time>2018-06-23T15:45:12.562Z</time>
      </trkpt>
      <trkpt lat="45.32658" lon="6.14039">
        <ele>1990.93139968</ele>
        <time>2018-06-23T15:46:18.313Z</time>
      </trkpt>
      <trkpt lat="45.32611" lon="6.14042">
        <ele>1995.2584577459</ele>
        <time>2018-06-23T15:47:10.562Z</time>
      </trkpt>
      <trkpt lat="45.32636" lon="6.14131">
        <ele>2000.5178816212</ele>
        <time>2018-06-23T15:48:10.562Z</time>
      </trkpt>
      <trkpt lat="45.32629" lon="6.14158">
        <ele>2003.0707285635</ele>
        <time>2018-06-23T15:49:18.324Z</time>
      </trkpt>
      <trkpt lat="45.3264" lon="6.1417">
        <ele>2007</ele>
        <time>2018-06-23T15:50:46.326Z</time>
      </trkpt>
      <trkpt lat="45.32617" lon="6.14144">
        <ele>2007.8583408352</ele>
        <time>2018-06-23T15:51:46.562Z</time>
      </trkpt>
      <trkpt lat="45.3263" lon="6.14159">
        <ele>2007.0408</ele>
        <time>2018-06-23T15:52:47.562Z</time>
      </trkpt>
      <trkpt lat="45.32624" lon="6.14161">
        <ele>2007</ele>
        <time>2018-06-23T15:53:47.562Z</time>
      </trkpt>
      <trkpt lat="45.32628" lon="6.14162">
        <ele>2007</ele>
        <time>2018-06-23T15:54:48.562Z</time>
      </trkpt>
      <trkpt lat="45.32633" lon="6.14174">
        <ele>2005</ele>
        <time>2018-06-23T15:55:31.316Z</time>
      </trkpt>
      <trkpt lat="45.32631" lon="6.14172">
        <ele>2005</ele>
        <time>2018-06-23T15:56:20.313Z</time>
      </trkpt>
      <trkpt lat="45.32617" lon="6.14137">
        <ele>2006</ele>
        <time>2018-06-23T15:57:27.315Z</time>
      </trkpt>
      <trkpt lat="45.32623" lon="6.14151">
        <ele>2007.03430016</ele>
        <time>2018-06-23T15:58:18.313Z</time>
      </trkpt>
      <trkpt lat="45.32637" lon="6.1416">
        <ele>2006</ele>
        <time>2018-06-23T15:59:21.313Z</time>
      </trkpt>
      <trkpt lat="45.32635" lon="6.14174">
        <ele>2006</ele>
        <time>2018-06-23T16:00:41.314Z</time>
      </trkpt>
      <trkpt lat="45.32627" lon="6.14166">
        <ele>2006.3592</ele>
        <time>2018-06-23T16:01:41.562Z</time>
      </trkpt>
      <trkpt lat="45.32628" lon="6.14166">
        <ele>2006</ele>
        <time>2018-06-23T16:02:42.562Z</time>
      </trkpt>
      <trkpt lat="45.32627" lon="6.14167">
        <ele>2006</ele>
        <time>2018-06-23T16:03:42.562Z</time>
      </trkpt>
      <trkpt lat="45.32628" lon="6.1417">
        <ele>2005</ele>
        <time>2018-06-23T16:04:43.562Z</time>
      </trkpt>
      <trkpt lat="45.3263" lon="6.14176">
        <ele>2004.46569984</ele>
        <time>2018-06-23T16:05:13.313Z</time>
      </trkpt>
      <trkpt lat="45.32611" lon="6.1419">
        <ele>2004.2592</ele>
        <time>2018-06-23T16:06:10.562Z</time>
      </trkpt>
      <trkpt lat="45.32622" lon="6.14234">
        <ele>2014.5184</ele>
        <time>2018-06-23T16:07:10.562Z</time>
      </trkpt>
      <trkpt lat="45.32637" lon="6.14308">
        <ele>2028.5169154917</ele>
        <time>2018-06-23T16:08:10.562Z</time>
      </trkpt>
      <trkpt lat="45.3264" lon="6.14367">
        <ele>2042</ele>
        <time>2018-06-23T16:09:10.562Z</time>
      </trkpt>
      <trkpt lat="45.32643" lon="6.14384">
        <ele>2044.2592</ele>
        <time>2018-06-23T16:10:10.562Z</time>
      </trkpt>
      <trkpt lat="45.32637" lon="6.14423">
        <ele>2050.73449984</ele>
        <time>2018-06-23T16:11:15.315Z</time>
      </trkpt>
      <trkpt lat="45.32572" lon="6.14401">
        <ele>2061.9184</ele>
        <time>2018-06-23T16:12:12.562Z</time>
      </trkpt>
      <trkpt lat="45.32602" lon="6.14469">
        <ele>2071.63430016</ele>
        <time>2018-06-23T16:13:24.313Z</time>
      </trkpt>
      <trkpt lat="45.32634" lon="6.14534">
        <ele>2077.5184</ele>
        <time>2018-06-23T16:14:10.562Z</time>
      </trkpt>
      <trkpt lat="45.326" lon="6.14522">
        <ele>2083.6337338623</ele>
        <time>2018-06-23T16:15:14.311Z</time>
      </trkpt>
      <trkpt lat="45.32611" lon="6.1452">
        <ele>2093.7768224318</ele>
        <time>2018-06-23T16:16:10.562Z</time>
      </trkpt>
      <trkpt lat="45.32591" lon="6.14566">
        <ele>2105</ele>
        <time>2018-06-23T16:17:10.562Z</time>
      </trkpt>
      <trkpt lat="45.326" lon="6.14612">
        <ele>2114.2592</ele>
        <time>2018-06-23T16:18:10.562Z</time>
      </trkpt>
      <trkpt lat="45.32635" lon="6.14646">
        <ele>2122.5184</ele>
        <time>2018-06-23T16:19:10.562Z</time>
      </trkpt>
      <trkpt lat="45.32629" lon="6.14686">
        <ele>2133.2592</ele>
        <time>2018-06-23T16:20:10.562Z</time>
      </trkpt>
      <trkpt lat="45.32646" lon="6.14709">
        <ele>2139.5184</ele>
        <time>2018-06-23T16:21:10.562Z</time>
      </trkpt>
      <trkpt lat="45.32653" lon="6.14749">
        <ele>2152.5169154917</ele>
        <time>2018-06-23T16:22:10.562Z</time>
      </trkpt>
      <trkpt lat="45.32647" lon="6.14752">
        <ele>2163.2675312519</ele>
        <time>2018-06-23T16:23:14.314Z</time>
      </trkpt>
      <trkpt lat="45.3267" lon="6.14797">
        <ele>2171.5184</ele>
        <time>2018-06-23T16:24:10.562Z</time>
      </trkpt>
      <trkpt lat="45.32632" lon="6.14827">
        <ele>2181.2592</ele>
        <time>2018-06-23T16:25:10.562Z</time>
      </trkpt>
      <trkpt lat="45.32654" lon="6.14849">
        <ele>2191.7776</ele>
        <time>2018-06-23T16:26:10.562Z</time>
      </trkpt>
      <trkpt lat="45.32657" lon="6.1485">
        <ele>2195.4816</ele>
        <time>2018-06-23T16:27:10.562Z</time>
      </trkpt>
      <trkpt lat="45.32646" lon="6.14842">
        <ele>2197</ele>
        <time>2018-06-23T16:28:10.562Z</time>
      </trkpt>
      <trkpt lat="45.32644" lon="6.14887">
        <ele>2204.5169154917</ele>
        <time>2018-06-23T16:29:10.562Z</time>
      </trkpt>
      <trkpt lat="45.32623" lon="6.14896">
        <ele>2208.633765626</ele>
        <time>2018-06-23T16:30:14.314Z</time>
      </trkpt>
      <trkpt lat="45.32638" lon="6.14916">
        <ele>2211.2592</ele>
        <time>2018-06-23T16:31:10.562Z</time>
      </trkpt>
      <trkpt lat="45.3263" lon="6.14986">
        <ele>2219</ele>
        <time>2018-06-23T16:32:10.562Z</time>
      </trkpt>
      <trkpt lat="45.32626" lon="6.1495">
        <ele>2219</ele>
        <time>2018-06-23T16:33:10.562Z</time>
      </trkpt>
      <trkpt lat="45.32617" lon="6.14986">
        <ele>2226.2592</ele>
        <time>2018-06-23T16:34:10.562Z</time>
      </trkpt>
      <trkpt lat="45.32721" lon="6.15001">
        <ele>2232</ele>
        <time>2018-06-23T16:35:10.562Z</time>
      </trkpt>
      <trkpt lat="45.32696" lon="6.15032">
        <ele>2235.2577149549</ele>
        <time>2018-06-23T16:36:10.562Z</time>
      </trkpt>
      <trkpt lat="45.32746" lon="6.15053">
        <ele>2238</ele>
        <time>2018-06-23T16:37:13.562Z</time>
      </trkpt>
      <trkpt lat="45.32639" lon="6.15033">
        <ele>2241.5184</ele>
        <time>2018-06-23T16:38:10.562Z</time>
      </trkpt>
      <trkpt lat="45.3264" lon="6.15007">
        <ele>2252</ele>
        <time>2018-06-23T16:39:10.562Z</time>
      </trkpt>
      <trkpt lat="45.32644" lon="6.15039">
        <ele>2258</ele>
        <time>2018-06-23T16:40:14.318Z</time>
      </trkpt>
      <trkpt lat="45.32634" lon="6.15031">
        <ele>2258</ele>
        <time>2018-06-23T16:41:12.316Z</time>
      </trkpt>
      <trkpt lat="45.32643" lon="6.15038">
        <ele>2260.7408</ele>
        <time>2018-06-23T16:42:10.562Z</time>
      </trkpt>
      <trkpt lat="45.3267" lon="6.15063">
        <ele>2261</ele>
        <time>2018-06-23T16:43:12.316Z</time>
      </trkpt>
      <trkpt lat="45.32642" lon="6.15044">
        <ele>2261.7410591894</ele>
        <time>2018-06-23T16:44:10.562Z</time>
      </trkpt>
      <trkpt lat="45.32632" lon="6.15043">
        <ele>2259.7408</ele>
        <time>2018-06-23T16:45:10.562Z</time>
      </trkpt>
      <trkpt lat="45.32643" lon="6.15076">
        <ele>2245.7408</ele>
        <time>2018-06-23T16:46:10.562Z</time>
      </trkpt>
      <trkpt lat="45.32667" lon="6.15143">
        <ele>2233.4816</ele>
        <time>2018-06-23T16:47:10.562Z</time>
      </trkpt>
      <trkpt lat="45.32639" lon="6.15131">
        <ele>2225.7408</ele>
        <time>2018-06-23T16:48:10.562Z</time>
      </trkpt>
      <trkpt lat="45.32644" lon="6.15134">
        <ele>2224.2592</ele>
        <time>2018-06-23T16:49:10.562Z</time>
      </trkpt>
      <trkpt lat="45.3262" lon="6.15206">
        <ele>2221.9661690165</ele>
        <time>2018-06-23T16:50:10.562Z</time>
      </trkpt>
      <trkpt lat="45.32651" lon="6.15269">
        <ele>2212.4463551364</ele>
        <time>2018-06-23T16:51:10.562Z</time>
      </trkpt>
      <trkpt lat="45.32642" lon="6.15324">
        <ele>2193</ele>
        <time>2018-06-23T16:52:10.562Z</time>
      </trkpt>
      <trkpt lat="45.32627" lon="6.15339">
        <ele>2184.9632</ele>
        <time>2018-06-23T16:53:10.562Z</time>
      </trkpt>
      <trkpt lat="45.32627" lon="6.15398">
        <ele>2171.4816</ele>
        <time>2018-06-23T16:54:10.562Z</time>
      </trkpt>
      <trkpt lat="45.32603" lon="6.15434">
        <ele>2154.4816</ele>
        <time>2018-06-23T16:55:10.562Z</time>
      </trkpt>
      <trkpt lat="45.32597" lon="6.15515">
        <ele>2140.9632</ele>
        <time>2018-06-23T16:56:10.562Z</time>
      </trkpt>
      <trkpt lat="45.32584" lon="6.15566">
        <ele>2130.5413418615</ele>
        <time>2018-06-23T16:57:12.562Z</time>
      </trkpt>
      <trkpt lat="45.32528" lon="6.15587">
        <ele>2121</ele>
        <time>2018-06-23T16:58:10.562Z</time>
      </trkpt>
      <trkpt lat="45.32496" lon="6.1559">
        <ele>2108.7408</ele>
        <time>2018-06-23T16:59:10.562Z</time>
      </trkpt>
      <trkpt lat="45.32493" lon="6.15606">
        <ele>2101</ele>
        <time>2018-06-23T17:00:10.562Z</time>
      </trkpt>
      <trkpt lat="45.32441" lon="6.15614">
        <ele>2086.4816</ele>
        <time>2018-06-23T17:01:10.562Z</time>
      </trkpt>
      <trkpt lat="45.32452" lon="6.15634">
        <ele>2083.4816</ele>
        <time>2018-06-23T17:02:10.562Z</time>
      </trkpt>
      <trkpt lat="45.32438" lon="6.15662">
        <ele>2068.9632</ele>
        <time>2018-06-23T17:03:10.562Z</time>
      </trkpt>
      <trkpt lat="45.32391" lon="6.15721">
        <ele>2055.7415422541</ele>
        <time>2018-06-23T17:04:10.562Z</time>
      </trkpt>
      <trkpt lat="45.3239" lon="6.15763">
        <ele>2043.9642367576</ele>
        <time>2018-06-23T17:05:10.562Z</time>
      </trkpt>
      <trkpt lat="45.32387" lon="6.15787">
        <ele>2028.7408</ele>
        <time>2018-06-23T17:06:10.562Z</time>
      </trkpt>
      <trkpt lat="45.32303" lon="6.15821">
        <ele>2027</ele>
        <time>2018-06-23T17:07:10.562Z</time>
      </trkpt>
      <trkpt lat="45.3228" lon="6.15851">
        <ele>2026.7408</ele>
        <time>2018-06-23T17:08:10.562Z</time>
      </trkpt>
      <trkpt lat="45.32275" lon="6.15828">
        <ele>2027</ele>
        <time>2018-06-23T17:09:10.562Z</time>
      </trkpt>
      <trkpt lat="45.32285" lon="6.15845">
        <ele>2028.7415422541</ele>
        <time>2018-06-23T17:10:10.562Z</time>
      </trkpt>
      <trkpt lat="45.32277" lon="6.15863">
        <ele>2026.2584577459</ele>
        <time>2018-06-23T17:11:10.562Z</time>
      </trkpt>
      <trkpt lat="45.32278" lon="6.15915">
        <ele>2029</ele>
        <time>2018-06-23T17:12:10.562Z</time>
      </trkpt>
      <trkpt lat="45.32301" lon="6.1598">
        <ele>2028.2592</ele>
        <time>2018-06-23T17:13:10.562Z</time>
      </trkpt>
      <trkpt lat="45.32326" lon="6.16053">
        <ele>2028.7408</ele>
        <time>2018-06-23T17:14:10.562Z</time>
      </trkpt>
      <trkpt lat="45.32335" lon="6.16095">
        <ele>2027</ele>
        <time>2018-06-23T17:15:13.322Z</time>
      </trkpt>
      <trkpt lat="45.32338" lon="6.16105">
        <ele>2027</ele>
        <time>2018-06-23T17:16:10.562Z</time>
      </trkpt>
      <trkpt lat="45.32348" lon="6.16069">
        <ele>2027</ele>
        <time>2018-06-23T17:17:10.562Z</time>
      </trkpt>
      <trkpt lat="45.32341" lon="6.16107">
        <ele>2026.7415422541</ele>
        <time>2018-06-23T17:18:10.562Z</time>
      </trkpt>
      <trkpt lat="45.32357" lon="6.16116">
        <ele>2027</ele>
        <time>2018-06-23T17:19:10.562Z</time>
      </trkpt>
      <trkpt lat="45.32332" lon="6.16096">
        <ele>2027</ele>
        <time>2018-06-23T17:20:10.562Z</time>
      </trkpt>
      <trkpt lat="45.32344" lon="6.16107">
        <ele>2027</ele>
        <time>2018-06-23T17:21:12.323Z</time>
      </trkpt>
      <trkpt lat="45.3237" lon="6.16119">
        <ele>2026.2584577459</ele>
        <time>2018-06-23T17:22:10.562Z</time>
      </trkpt>
      <trkpt lat="45.32406" lon="6.16145">
        <ele>2028</ele>
        <time>2018-06-23T17:23:10.562Z</time>
      </trkpt>
      <trkpt lat="45.32448" lon="6.16168">
        <ele>2027</ele>
        <time>2018-06-23T17:24:10.562Z</time>
      </trkpt>
      <trkpt lat="45.32466" lon="6.16224">
        <ele>2010.7415422541</ele>
        <time>2018-06-23T17:25:10.562Z</time>
      </trkpt>
      <trkpt lat="45.32479" lon="6.16294">
        <ele>1996</ele>
        <time>2018-06-23T17:26:10.562Z</time>
      </trkpt>
      <trkpt lat="45.3249" lon="6.16341">
        <ele>1977.8235008</ele>
        <time>2018-06-23T17:27:12.323Z</time>
      </trkpt>
      <trkpt lat="45.32499" lon="6.16367">
        <ele>1962.1856</ele>
        <time>2018-06-23T17:28:10.562Z</time>
      </trkpt>
      <trkpt lat="45.32552" lon="6.16404">
        <ele>1947.7408</ele>
        <time>2018-06-23T17:29:10.562Z</time>
      </trkpt>
      <trkpt lat="45.32567" lon="6.16458">
        <ele>1938.7408</ele>
        <time>2018-06-23T17:30:10.562Z</time>
      </trkpt>
      <trkpt lat="45.32576" lon="6.16487">
        <ele>1932</ele>
        <time>2018-06-23T17:31:10.562Z</time>
      </trkpt>
      <trkpt lat="45.3262" lon="6.16547">
        <ele>1926.7415422541</ele>
        <time>2018-06-23T17:32:10.562Z</time>
      </trkpt>
      <trkpt lat="45.3257" lon="6.16626">
        <ele>1925</ele>
        <time>2018-06-23T17:33:10.562Z</time>
      </trkpt>
      <trkpt lat="45.32601" lon="6.16653">
        <ele>1924.43560064</ele>
        <time>2018-06-23T17:34:12.326Z</time>
      </trkpt>
      <trkpt lat="45.32616" lon="6.16685">
        <ele>1920.4355008</ele>
        <time>2018-06-23T17:35:12.325Z</time>
      </trkpt>
      <trkpt lat="45.32661" lon="6.16701">
        <ele>1915.7413175305</ele>
        <time>2018-06-23T17:36:10.562Z</time>
      </trkpt>
      <trkpt lat="45.32733" lon="6.16693">
        <ele>1900.7415422541</ele>
        <time>2018-06-23T17:37:10.562Z</time>
      </trkpt>
      <trkpt lat="45.32796" lon="6.16701">
        <ele>1896.4816</ele>
        <time>2018-06-23T17:38:10.562Z</time>
      </trkpt>
      <trkpt lat="45.3278" lon="6.1669">
        <ele>1893</ele>
        <time>2018-06-23T17:39:10.562Z</time>
      </trkpt>
      <trkpt lat="45.32773" lon="6.16656">
        <ele>1881.705295947</ele>
        <time>2018-06-23T17:40:10.562Z</time>
      </trkpt>
      <trkpt lat="45.3283" lon="6.16579">
        <ele>1861.4816</ele>
        <time>2018-06-23T17:41:10.562Z</time>
      </trkpt>
      <trkpt lat="45.32843" lon="6.16535">
        <ele>1852.4816</ele>
        <time>2018-06-23T17:42:10.562Z</time>
      </trkpt>
      <trkpt lat="45.32942" lon="6.16469">
        <ele>1843.7408</ele>
        <time>2018-06-23T17:43:10.562Z</time>
      </trkpt>
      <trkpt lat="45.32958" lon="6.16448">
        <ele>1838</ele>
        <time>2018-06-23T17:44:10.562Z</time>
      </trkpt>
      <trkpt lat="45.33014" lon="6.16449">
        <ele>1832.7408</ele>
        <time>2018-06-23T17:45:10.562Z</time>
      </trkpt>
      <trkpt lat="45.33062" lon="6.1641">
        <ele>1826.7415422541</ele>
        <time>2018-06-23T17:46:10.562Z</time>
      </trkpt>
      <trkpt lat="45.33118" lon="6.16391">
        <ele>1823</ele>
        <time>2018-06-23T17:47:10.562Z</time>
      </trkpt>
      <trkpt lat="45.3315" lon="6.16361">
        <ele>1820</ele>
        <time>2018-06-23T17:48:10.562Z</time>
      </trkpt>
      <trkpt lat="45.33171" lon="6.16347">
        <ele>1818.7408</ele>
        <time>2018-06-23T17:49:10.562Z</time>
      </trkpt>
      <trkpt lat="45.33218" lon="6.16299">
        <ele>1815.7408</ele>
        <time>2018-06-23T17:50:10.562Z</time>
      </trkpt>
      <trkpt lat="45.33251" lon="6.16178">
        <ele>1810.2584577459</ele>
        <time>2018-06-23T17:51:10.562Z</time>
      </trkpt>
      <trkpt lat="45.33289" lon="6.16149">
        <ele>1804.7408</ele>
        <time>2018-06-23T17:52:10.562Z</time>
      </trkpt>
      <trkpt lat="45.33353" lon="6.16136">
        <ele>1796.4830845083</ele>
        <time>2018-06-23T17:53:10.562Z</time>
      </trkpt>
      <trkpt lat="45.33399" lon="6.16074">
        <ele>1792.2589408106</ele>
        <time>2018-06-23T17:54:10.562Z</time>
      </trkpt>
      <trkpt lat="45.33449" lon="6.16012">
        <ele>1787.7408</ele>
        <time>2018-06-23T17:55:10.562Z</time>
      </trkpt>
      <trkpt lat="45.33468" lon="6.15969">
        <ele>1785</ele>
        <time>2018-06-23T17:56:10.562Z</time>
      </trkpt>
      <trkpt lat="45.33587" lon="6.15939">
        <ele>1782.7408</ele>
        <time>2018-06-23T17:57:10.562Z</time>
      </trkpt>
      <trkpt lat="45.33608" lon="6.15896">
        <ele>1779</ele>
        <time>2018-06-23T17:58:10.562Z</time>
      </trkpt>
      <trkpt lat="45.33679" lon="6.15897">
        <ele>1779</ele>
        <time>2018-06-23T17:59:10.562Z</time>
      </trkpt>
      <trkpt lat="45.33677" lon="6.15837">
        <ele>1779.5154299097</ele>
        <time>2018-06-23T18:00:10.562Z</time>
      </trkpt>
      <trkpt lat="45.33675" lon="6.1585">
        <ele>1781</ele>
        <time>2018-06-23T18:01:10.562Z</time>
      </trkpt>
      <trkpt lat="45.33677" lon="6.15844">
        <ele>1780</ele>
        <time>2018-06-23T18:02:14.331Z</time>
      </trkpt>
      <trkpt lat="45.33689" lon="6.15852">
        <ele>1780</ele>
        <time>2018-06-23T18:03:10.562Z</time>
      </trkpt>
      <trkpt lat="45.33682" lon="6.15837">
        <ele>1780.7408</ele>
        <time>2018-06-23T18:04:10.562Z</time>
      </trkpt>
      <trkpt lat="45.33688" lon="6.15854">
        <ele>1781.4816</ele>
        <time>2018-06-23T18:05:10.562Z</time>
      </trkpt>
      <trkpt lat="45.33693" lon="6.15848">
        <ele>1781</ele>
        <time>2018-06-23T18:06:10.562Z</time>
      </trkpt>
      <trkpt lat="45.33698" lon="6.15852">
        <ele>1780.7415422541</ele>
        <time>2018-06-23T18:07:10.562Z</time>
      </trkpt>
      <trkpt lat="45.33692" lon="6.15849">
        <ele>1781.7410591894</ele>
        <time>2018-06-23T18:08:10.562Z</time>
      </trkpt>
      <trkpt lat="45.33688" lon="6.15848">
        <ele>1781.2592</ele>
        <time>2018-06-23T18:09:10.562Z</time>
      </trkpt>
      <trkpt lat="45.337" lon="6.15857">
        <ele>1782</ele>
        <time>2018-06-23T18:10:10.562Z</time>
      </trkpt>
      <trkpt lat="45.33693" lon="6.15847">
        <ele>1781.7408</ele>
        <time>2018-06-23T18:11:10.562Z</time>
      </trkpt>
      <trkpt lat="45.33683" lon="6.15848">
        <ele>1781.4592</ele>
        <time>2018-06-23T18:12:12.562Z</time>
      </trkpt>
      <trkpt lat="45.33716" lon="6.15871">
        <ele>1781</ele>
        <time>2018-06-23T18:13:13.562Z</time>
      </trkpt>
      <trkpt lat="45.33782" lon="6.15921">
        <ele>1778.9661690165</ele>
        <time>2018-06-23T18:14:10.562Z</time>
      </trkpt>
      <trkpt lat="45.33835" lon="6.15984">
        <ele>1774</ele>
        <time>2018-06-23T18:15:10.562Z</time>
      </trkpt>
      <trkpt lat="45.33897" lon="6.15971">
        <ele>1761.2224</ele>
        <time>2018-06-23T18:16:10.562Z</time>
      </trkpt>
      <trkpt lat="45.33883" lon="6.16039">
        <ele>1745.7408</ele>
        <time>2018-06-23T18:17:10.562Z</time>
      </trkpt>
      <trkpt lat="45.34028" lon="6.1602">
        <ele>1736.46349952</ele>
        <time>2018-06-23T18:18:13.335Z</time>
      </trkpt>
      <trkpt lat="45.34095" lon="6.16002">
        <ele>1726.7408</ele>
        <time>2018-06-23T18:19:10.562Z</time>
      </trkpt>
      <trkpt lat="45.34158" lon="6.16038">
        <ele>1718.4816</ele>
        <time>2018-06-23T18:20:10.562Z</time>
      </trkpt>
      <trkpt lat="45.3421" lon="6.16049">
        <ele>1719.7415422541</ele>
        <time>2018-06-23T18:21:10.562Z</time>
      </trkpt>
      <trkpt lat="45.34265" lon="6.16011">
        <ele>1716</ele>
        <time>2018-06-23T18:22:10.562Z</time>
      </trkpt>
      <trkpt lat="45.34325" lon="6.15981">
        <ele>1710.4448</ele>
        <time>2018-06-23T18:23:10.562Z</time>
      </trkpt>
      <trkpt lat="45.34373" lon="6.15926">
        <ele>1693.7408</ele>
        <time>2018-06-23T18:24:10.562Z</time>
      </trkpt>
      <trkpt lat="45.34378" lon="6.15928">
        <ele>1694</ele>
        <time>2018-06-23T18:25:10.562Z</time>
      </trkpt>
      <trkpt lat="45.34379" lon="6.15917">
        <ele>1693</ele>
        <time>2018-06-23T18:26:10.562Z</time>
      </trkpt>
      <trkpt lat="45.34384" lon="6.15868">
        <ele>1689.4816</ele>
        <time>2018-06-23T18:27:10.562Z</time>
      </trkpt>
      <trkpt lat="45.34438" lon="6.15862">
        <ele>1676.4492535248</ele>
        <time>2018-06-23T18:28:10.562Z</time>
      </trkpt>
      <trkpt lat="45.3445" lon="6.1581">
        <ele>1662.4413591771</ele>
        <time>2018-06-23T18:29:13.562Z</time>
      </trkpt>
      <trkpt lat="45.34472" lon="6.15781">
        <ele>1655.7408</ele>
        <time>2018-06-23T18:30:10.562Z</time>
      </trkpt>
      <trkpt lat="45.34505" lon="6.15762">
        <ele>1645.2224</ele>
        <time>2018-06-23T18:31:10.562Z</time>
      </trkpt>
      <trkpt lat="45.34524" lon="6.15769">
        <ele>1634.4816</ele>
        <time>2018-06-23T18:32:10.562Z</time>
      </trkpt>
      <trkpt lat="45.34524" lon="6.15748">
        <ele>1630</ele>
        <time>2018-06-23T18:33:12.345Z</time>
      </trkpt>
      <trkpt lat="45.34562" lon="6.1577">
        <ele>1625.4816</ele>
        <time>2018-06-23T18:34:10.562Z</time>
      </trkpt>
      <trkpt lat="45.34587" lon="6.15807">
        <ele>1608.7415422541</ele>
        <time>2018-06-23T18:35:10.562Z</time>
      </trkpt>
      <trkpt lat="45.34622" lon="6.15802">
        <ele>1603</ele>
        <time>2018-06-23T18:36:10.562Z</time>
      </trkpt>
      <trkpt lat="45.34641" lon="6.15688">
        <ele>1590.4816</ele>
        <time>2018-06-23T18:37:10.562Z</time>
      </trkpt>
      <trkpt lat="45.34685" lon="6.15773">
        <ele>1586</ele>
        <time>2018-06-23T18:38:10.562Z</time>
      </trkpt>
      <trkpt lat="45.34715" lon="6.15755">
        <ele>1584.4816</ele>
        <time>2018-06-23T18:39:10.562Z</time>
      </trkpt>
      <trkpt lat="45.34736" lon="6.15819">
        <ele>1576.5184</ele>
        <time>2018-06-23T18:40:10.562Z</time>
      </trkpt>
      <trkpt lat="45.34783" lon="6.15812">
        <ele>1579</ele>
        <time>2018-06-23T18:41:12.338Z</time>
      </trkpt>
      <trkpt lat="45.34811" lon="6.15762">
        <ele>1574</ele>
        <time>2018-06-23T18:42:10.562Z</time>
      </trkpt>
      <trkpt lat="45.34821" lon="6.15786">
        <ele>1573</ele>
        <time>2018-06-23T18:43:10.562Z</time>
      </trkpt>
      <trkpt lat="45.34876" lon="6.15715">
        <ele>1569</ele>
        <time>2018-06-23T18:44:10.562Z</time>
      </trkpt>
      <trkpt lat="45.34919" lon="6.15766">
        <ele>1569</ele>
        <time>2018-06-23T18:45:10.562Z</time>
      </trkpt>
      <trkpt lat="45.34908" lon="6.15722">
        <ele>1568.7408</ele>
        <time>2018-06-23T18:46:10.562Z</time>
      </trkpt>
      <trkpt lat="45.34978" lon="6.15681">
        <ele>1560.7408</ele>
        <time>2018-06-23T18:47:10.562Z</time>
      </trkpt>
      <trkpt lat="45.34996" lon="6.15654">
        <ele>1557</ele>
        <time>2018-06-23T18:48:14.339Z</time>
      </trkpt>
      <trkpt lat="45.3503" lon="6.15604">
        <ele>1561.5169154917</ele>
        <time>2018-06-23T18:49:10.562Z</time>
      </trkpt>
      <trkpt lat="45.35046" lon="6.15606">
        <ele>1565.4362356945</ele>
        <time>2018-06-23T18:50:22.338Z</time>
      </trkpt>
      <trkpt lat="45.35066" lon="6.15669">
        <ele>1566</ele>
        <time>2018-06-23T18:51:10.562Z</time>
      </trkpt>
      <trkpt lat="45.3509" lon="6.1556">
        <ele>1562.9632</ele>
        <time>2018-06-23T18:52:10.562Z</time>
      </trkpt>
      <trkpt lat="45.35104" lon="6.15528">
        <ele>1557</ele>
        <time>2018-06-23T18:53:13.341Z</time>
      </trkpt>
      <trkpt lat="45.35189" lon="6.1541">
        <ele>1548.7408</ele>
        <time>2018-06-23T18:54:10.562Z</time>
      </trkpt>
      <trkpt lat="45.35244" lon="6.15349">
        <ele>1551.4816</ele>
        <time>2018-06-23T18:55:10.562Z</time>
      </trkpt>
      <trkpt lat="45.35269" lon="6.153">
        <ele>1541.7415422541</ele>
        <time>2018-06-23T18:56:10.562Z</time>
      </trkpt>
      <trkpt lat="45.35355" lon="6.1528">
        <ele>1532.4821183788</ele>
        <time>2018-06-23T18:57:10.562Z</time>
      </trkpt>
      <trkpt lat="45.35364" lon="6.15262">
        <ele>1517.63699968</ele>
        <time>2018-06-23T18:58:14.340Z</time>
      </trkpt>
      <trkpt lat="45.35369" lon="6.15252">
        <ele>1519.4408</ele>
        <time>2018-06-23T18:59:13.562Z</time>
      </trkpt>
      <trkpt lat="45.35383" lon="6.15319">
        <ele>1508.5184</ele>
        <time>2018-06-23T19:00:10.562Z</time>
      </trkpt>
      <trkpt lat="45.35523" lon="6.15199">
        <ele>1497.2224</ele>
        <time>2018-06-23T19:01:10.562Z</time>
      </trkpt>
      <trkpt lat="45.3548" lon="6.15249">
        <ele>1482</ele>
        <time>2018-06-23T19:02:10.562Z</time>
      </trkpt>
      <trkpt lat="45.35489" lon="6.15217">
        <ele>1478.163062419</ele>
        <time>2018-06-23T19:03:16.341Z</time>
      </trkpt>
      <trkpt lat="45.35523" lon="6.1514">
        <ele>1464.9642367576</ele>
        <time>2018-06-23T19:04:10.562Z</time>
      </trkpt>
      <trkpt lat="45.35534" lon="6.15159">
        <ele>1448.72600064</ele>
        <time>2018-06-23T19:05:14.340Z</time>
      </trkpt>
      <trkpt lat="45.35522" lon="6.15153">
        <ele>1438.7408</ele>
        <time>2018-06-23T19:06:10.562Z</time>
      </trkpt>
      <trkpt lat="45.35523" lon="6.15135">
        <ele>1439.7371008</ele>
        <time>2018-06-23T19:07:15.341Z</time>
      </trkpt>
      <trkpt lat="45.35555" lon="6.15131">
        <ele>1434.26279936</ele>
        <time>2018-06-23T19:08:15.342Z</time>
      </trkpt>
      <trkpt lat="45.35577" lon="6.1515">
        <ele>1424.2224</ele>
        <time>2018-06-23T19:09:10.562Z</time>
      </trkpt>
      <trkpt lat="45.356" lon="6.15113">
        <ele>1407.8824833305</ele>
        <time>2018-06-23T19:10:13.562Z</time>
      </trkpt>
      <trkpt lat="45.35632" lon="6.15093">
        <ele>1397.7410591894</ele>
        <time>2018-06-23T19:11:10.562Z</time>
      </trkpt>
      <trkpt lat="45.35669" lon="6.15033">
        <ele>1388</ele>
        <time>2018-06-23T19:12:14.342Z</time>
      </trkpt>
      <trkpt lat="45.35648" lon="6.14979">
        <ele>1377.2062083263</ele>
        <time>2018-06-23T19:13:13.562Z</time>
      </trkpt>
      <trkpt lat="45.35717" lon="6.14964">
        <ele>1359.8816</ele>
        <time>2018-06-23T19:14:13.562Z</time>
      </trkpt>
      <trkpt lat="45.35755" lon="6.14926">
        <ele>1346.1632</ele>
        <time>2018-06-23T19:15:12.562Z</time>
      </trkpt>
      <trkpt lat="45.35765" lon="6.14894">
        <ele>1329.3224</ele>
        <time>2018-06-23T19:16:13.562Z</time>
      </trkpt>
      <trkpt lat="45.35812" lon="6.14876">
        <ele>1317.16370048</ele>
        <time>2018-06-23T19:17:16.343Z</time>
      </trkpt>
      <trkpt lat="45.35814" lon="6.14837">
        <ele>1305.2090048</ele>
        <time>2018-06-23T19:18:13.562Z</time>
      </trkpt>
      <trkpt lat="45.3578" lon="6.14767">
        <ele>1291.52539904</ele>
        <time>2018-06-23T19:19:15.343Z</time>
      </trkpt>
      <trkpt lat="45.35784" lon="6.14713">
        <ele>1275.9632</ele>
        <time>2018-06-23T19:20:10.562Z</time>
      </trkpt>
      <trkpt lat="45.35832" lon="6.14672">
        <ele>1268.3414831849</ele>
        <time>2018-06-23T19:21:14.562Z</time>
      </trkpt>
      <trkpt lat="45.358" lon="6.1462">
        <ele>1266</ele>
        <time>2018-06-23T19:21:59.521Z</time>
      </trkpt>
      <trkpt lat="45.3593" lon="6.14534">
        <ele>1259.8408</ele>
        <time>2018-06-23T19:22:59.562Z</time>
      </trkpt>
      <trkpt lat="45.36026" lon="6.14475">
        <ele>1249.9632</ele>
        <time>2018-06-23T19:24:00.562Z</time>
      </trkpt>
      <trkpt lat="45.3613" lon="6.14466">
        <ele>1240.4816</ele>
        <time>2018-06-23T19:25:00.562Z</time>
      </trkpt>
      <trkpt lat="45.36226" lon="6.14489">
        <ele>1237.6414420578</ele>
        <time>2018-06-23T19:26:01.562Z</time>
      </trkpt>
      <trkpt lat="45.36299" lon="6.14539">
        <ele>1236</ele>
        <time>2018-06-23T19:27:01.562Z</time>
      </trkpt>
      <trkpt lat="45.36393" lon="6.14569">
        <ele>1234.6408</ele>
        <time>2018-06-23T19:28:01.562Z</time>
      </trkpt>
      <trkpt lat="45.36434" lon="6.14559">
        <ele>1230</ele>
        <time>2018-06-23T19:28:58.562Z</time>
      </trkpt>
      <trkpt lat="45.36456" lon="6.14546">
        <ele>1226.8816</ele>
        <time>2018-06-23T19:29:58.562Z</time>
      </trkpt>
      <trkpt lat="45.36471" lon="6.14545">
        <ele>1223.9408</ele>
        <time>2018-06-23T19:30:58.562Z</time>
      </trkpt>
      <trkpt lat="45.36533" lon="6.14424">
        <ele>1212.8816</ele>
        <time>2018-06-23T19:31:58.562Z</time>
      </trkpt>
      <trkpt lat="45.36583" lon="6.14287">
        <ele>1199.6816</ele>
        <time>2018-06-23T19:32:59.562Z</time>
      </trkpt>
      <trkpt lat="45.36456" lon="6.14327">
        <ele>1183.8518740906</ele>
        <time>2018-06-23T19:33:59.562Z</time>
      </trkpt>
      <trkpt lat="45.36396" lon="6.1428">
        <ele>1172.204</ele>
        <time>2018-06-23T19:34:59.562Z</time>
      </trkpt>
      <trkpt lat="45.3652" lon="6.14219">
        <ele>1155.5579580995</ele>
        <time>2018-06-23T19:35:59.562Z</time>
      </trkpt>
      <trkpt lat="45.36625" lon="6.14139">
        <ele>1142.8511629352</ele>
        <time>2018-06-23T19:36:59.562Z</time>
      </trkpt>
      <trkpt lat="45.36726" lon="6.14026">
        <ele>1130.7423161628</ele>
        <time>2018-06-23T19:38:00.562Z</time>
      </trkpt>
      <trkpt lat="45.36845" lon="6.13969">
        <ele>1118.4816</ele>
        <time>2018-06-23T19:39:00.562Z</time>
      </trkpt>
      <trkpt lat="45.36956" lon="6.13871">
        <ele>1105</ele>
        <time>2018-06-23T19:40:00.562Z</time>
      </trkpt>
      <trkpt lat="45.36956" lon="6.1375">
        <ele>1098</ele>
        <time>2018-06-23T19:41:00.562Z</time>
      </trkpt>
      <trkpt lat="45.36958" lon="6.13664">
        <ele>1093.6427008</ele>
        <time>2018-06-23T19:42:01.562Z</time>
      </trkpt>
      <trkpt lat="45.36974" lon="6.13546">
        <ele>1090</ele>
        <time>2018-06-23T19:43:01.562Z</time>
      </trkpt>
      <trkpt lat="45.37051" lon="6.1348">
        <ele>1087</ele>
        <time>2018-06-23T19:44:01.562Z</time>
      </trkpt>
      <trkpt lat="45.3714" lon="6.13408">
        <ele>1088</ele>
        <time>2018-06-23T19:45:01.562Z</time>
      </trkpt>
      <trkpt lat="45.37234" lon="6.13289">
        <ele>1078</ele>
        <time>2018-06-23T19:46:01.562Z</time>
      </trkpt>
      <trkpt lat="45.37318" lon="6.13167">
        <ele>1077</ele>
        <time>2018-06-23T19:47:01.562Z</time>
      </trkpt>
      <trkpt lat="45.37387" lon="6.13087">
        <ele>1074</ele>
        <time>2018-06-23T19:48:02.562Z</time>
      </trkpt>
      <trkpt lat="45.37505" lon="6.13048">
        <ele>1055.1932674492</ele>
        <time>2018-06-23T19:49:02.562Z</time>
      </trkpt>
      <trkpt lat="45.37594" lon="6.12959">
        <ele>1034.6419393409</ele>
        <time>2018-06-23T19:50:02.562Z</time>
      </trkpt>
      <trkpt lat="45.3764" lon="6.12909">
        <ele>1017.5408</ele>
        <time>2018-06-23T19:51:02.562Z</time>
      </trkpt>
      <trkpt lat="45.37511" lon="6.12928">
        <ele>999.44569984</ele>
        <time>2018-06-23T19:52:03.562Z</time>
      </trkpt>
      <trkpt lat="45.37524" lon="6.12873">
        <ele>984.70570734482</ele>
        <time>2018-06-23T19:53:04.562Z</time>
      </trkpt>
      <trkpt lat="45.37548" lon="6.12812">
        <ele>965.41495723551</ele>
        <time>2018-06-23T19:54:04.562Z</time>
      </trkpt>
      <trkpt lat="45.37646" lon="6.12737">
        <ele>946.48848647209</ele>
        <time>2018-06-23T19:55:05.562Z</time>
      </trkpt>
      <trkpt lat="45.37695" lon="6.12644">
        <ele>931.2408</ele>
        <time>2018-06-23T19:56:05.562Z</time>
      </trkpt>
      <trkpt lat="45.37729" lon="6.12537">
        <ele>921.24532851192</ele>
        <time>2018-06-23T19:57:05.562Z</time>
      </trkpt>
      <trkpt lat="45.37736" lon="6.12434">
        <ele>906.2408</ele>
        <time>2018-06-23T19:58:05.562Z</time>
      </trkpt>
      <trkpt lat="45.37711" lon="6.12409">
        <ele>903.89870235489</ele>
        <time>2018-06-23T19:58:23.482Z</time>
      </trkpt>
      <trkpt lat="45.37734" lon="6.12246">
        <ele>895.06503904382</ele>
        <time>2018-06-23T19:59:47.357Z</time>
      </trkpt>
      <trkpt lat="45.37746" lon="6.12157">
        <ele>888.24920064</ele>
        <time>2018-06-23T20:00:22.347Z</time>
      </trkpt>
      <trkpt lat="45.37754" lon="6.12032">
        <ele>877.84880128</ele>
        <time>2018-06-23T20:01:23.348Z</time>
      </trkpt>
      <trkpt lat="45.37766" lon="6.11912">
        <ele>865.98660096</ele>
        <time>2018-06-23T20:02:21.348Z</time>
      </trkpt>
      <trkpt lat="45.37801" lon="6.11783">
        <ele>850.6816</ele>
        <time>2018-06-23T20:03:19.562Z</time>
      </trkpt>
      <trkpt lat="45.37868" lon="6.11694">
        <ele>833.6224</ele>
        <time>2018-06-23T20:04:22.562Z</time>
      </trkpt>
      <trkpt lat="45.37894" lon="6.11571">
        <ele>821.4620992</ele>
        <time>2018-06-23T20:05:23.349Z</time>
      </trkpt>
      <trkpt lat="45.37903" lon="6.11445">
        <ele>808.84164245043</ele>
        <time>2018-06-23T20:06:19.562Z</time>
      </trkpt>
      <trkpt lat="45.37932" lon="6.11313">
        <ele>798.6816</ele>
        <time>2018-06-23T20:07:19.562Z</time>
      </trkpt>
      <trkpt lat="45.37945" lon="6.11185">
        <ele>791.6816</ele>
        <time>2018-06-23T20:08:19.562Z</time>
      </trkpt>
      <trkpt lat="45.38008" lon="6.1111">
        <ele>777</ele>
        <time>2018-06-23T20:09:23.351Z</time>
      </trkpt>
      <trkpt lat="45.38007" lon="6.11092">
        <ele>774.5408</ele>
        <time>2018-06-23T20:10:22.562Z</time>
      </trkpt>
      <trkpt lat="45.38041" lon="6.10981">
        <ele>764.3632</ele>
        <time>2018-06-23T20:11:19.562Z</time>
      </trkpt>
      <trkpt lat="45.38093" lon="6.10876">
        <ele>748.8408</ele>
        <time>2018-06-23T20:12:19.562Z</time>
      </trkpt>
      <trkpt lat="45.38095" lon="6.10679">
        <ele>732.8408</ele>
        <time>2018-06-23T20:13:19.562Z</time>
      </trkpt>
      <trkpt lat="45.38126" lon="6.10557">
        <ele>720.74725330933</ele>
        <time>2018-06-23T20:14:22.480Z</time>
      </trkpt>
      <trkpt lat="45.38187" lon="6.10495">
        <ele>711.8408</ele>
        <time>2018-06-23T20:15:19.562Z</time>
      </trkpt>
      <trkpt lat="45.38241" lon="6.10322">
        <ele>698.1241984</ele>
        <time>2018-06-23T20:16:22.349Z</time>
      </trkpt>
      <trkpt lat="45.38304" lon="6.10212">
        <ele>685.8408</ele>
        <time>2018-06-23T20:17:19.562Z</time>
      </trkpt>
      <trkpt lat="45.38313" lon="6.10125">
        <ele>673.81279744</ele>
        <time>2018-06-23T20:18:23.438Z</time>
      </trkpt>
      <trkpt lat="45.38346" lon="6.10001">
        <ele>662.48569856</ele>
        <time>2018-06-23T20:19:26.351Z</time>
      </trkpt>
      <trkpt lat="45.3837" lon="6.09907">
        <ele>652.38089856</ele>
        <time>2018-06-23T20:20:23.367Z</time>
      </trkpt>
      <trkpt lat="45.38372" lon="6.09798">
        <ele>637.5408</ele>
        <time>2018-06-23T20:21:22.562Z</time>
      </trkpt>
    </trkseg>
  </trk>
</gpx>